Time,TemperatureF,DewpointF,PressureIn,WindDirection,WindDirectionDegrees,WindSpeedMPH,WindSpeedGustMPH,Humidity,HourlyPrecipIn,Conditions,Clouds,dailyrainin,SolarRadiationWatts/m^2,SoftwareType,DateUTC
2013-10-06 00:14:00,81.0,69.0,-100.00,ESE,120,4.0,10.0,67,0.00,,,0.00,0.000000,,2013-10-06 04:14:00,
2013-10-06 00:24:00,81.0,69.0,-100.00,ESE,120,4.0,10.0,67,0.00,,,0.00,0.000000,,2013-10-06 04:24:00,
2013-10-06 00:34:00,81.0,69.0,-100.00,ESE,120,4.0,10.0,67,0.00,,,0.00,0.000000,,2013-10-06 04:34:00,
2013-10-06 01:13:00,81.0,68.0,-100.00,East,98,5.0,9.0,65,0.00,,,0.00,0.000000,,2013-10-06 05:13:00,
2013-10-06 01:23:00,81.0,68.0,-100.00,East,98,5.0,9.0,65,0.00,,,0.00,0.000000,,2013-10-06 05:23:00,
2013-10-06 01:34:00,81.0,68.0,-100.00,East,98,5.0,9.0,65,0.00,,,0.00,0.000000,,2013-10-06 05:34:00,
2013-10-06 02:12:00,79.0,69.0,-100.00,SSE,150,2.0,7.0,72,0.00,,,0.00,0.000000,,2013-10-06 06:12:00,
2013-10-06 02:22:00,79.0,69.0,-100.00,SSE,150,2.0,7.0,72,0.00,,,0.00,0.000000,,2013-10-06 06:22:00,
2013-10-06 02:32:00,79.0,69.0,-100.00,SSE,150,2.0,7.0,72,0.00,,,0.00,0.000000,,2013-10-06 06:32:00,
2013-10-06 03:11:00,77.0,70.0,-100.00,SSE,155,2.0,4.0,78,0.00,,,0.00,0.000000,,2013-10-06 07:11:00,
2013-10-06 03:22:00,77.0,70.0,-100.00,SSE,155,2.0,4.0,78,0.00,,,0.00,0.000000,,2013-10-06 07:22:00,
2013-10-06 03:32:00,77.0,70.0,-100.00,SSE,155,2.0,4.0,78,0.00,,,0.00,0.000000,,2013-10-06 07:32:00,
2013-10-06 04:12:00,76.0,69.0,-100.00,SSE,157,1.0,4.0,79,0.00,,,0.00,0.000000,,2013-10-06 08:12:00,
2013-10-06 04:22:00,76.0,69.0,-100.00,SSE,157,1.0,4.0,79,0.00,,,0.00,0.000000,,2013-10-06 08:22:00,
2013-10-06 04:32:00,76.0,69.0,-100.00,SSE,157,1.0,4.0,79,0.00,,,0.00,0.000000,,2013-10-06 08:32:00,
2013-10-06 05:11:00,75.0,70.0,-100.00,ESE,118,2.0,3.0,84,0.00,,,0.00,0.000000,,2013-10-06 09:11:00,
2013-10-06 05:22:00,75.0,70.0,-100.00,ESE,118,2.0,3.0,84,0.00,,,0.00,0.000000,,2013-10-06 09:22:00,
2013-10-06 05:33:00,75.0,70.0,-100.00,ESE,118,2.0,3.0,84,0.00,,,0.00,0.000000,,2013-10-06 09:33:00,
2013-10-06 06:13:00,78.0,69.0,-100.00,East,89,3.0,5.0,74,0.00,,,0.00,0.000000,,2013-10-06 10:13:00,
2013-10-06 06:23:00,78.0,69.0,-100.00,East,89,3.0,5.0,74,0.00,,,0.00,0.000000,,2013-10-06 10:23:00,
2013-10-06 06:33:00,78.0,69.0,-100.00,East,89,3.0,5.0,74,0.00,,,0.00,0.000000,,2013-10-06 10:33:00,
2013-10-06 07:12:00,79.0,69.0,-100.00,East,83,3.0,7.0,72,0.00,,,0.00,0.000000,,2013-10-06 11:12:00,
2013-10-06 07:22:00,79.0,69.0,-100.00,East,83,3.0,7.0,72,0.00,,,0.00,0.000000,,2013-10-06 11:22:00,
2013-10-06 07:33:00,79.0,69.0,-100.00,East,83,3.0,7.0,72,0.00,,,0.00,0.000000,,2013-10-06 11:33:00,
2013-10-06 08:12:00,79.0,70.0,-100.00,East,80,3.0,6.0,73,0.00,,,0.00,4.000000,,2013-10-06 12:12:00,
2013-10-06 08:22:00,79.0,70.0,-100.00,East,80,3.0,6.0,73,0.00,,,0.00,4.000000,,2013-10-06 12:22:00,
2013-10-06 08:32:00,79.0,70.0,-100.00,East,80,3.0,6.0,73,0.00,,,0.00,4.000000,,2013-10-06 12:32:00,
2013-10-06 09:11:00,82.0,70.0,-100.00,East,82,4.0,7.0,68,0.00,,,0.00,82.000000,,2013-10-06 13:11:00,
2013-10-06 09:21:00,82.0,70.0,-100.00,East,82,4.0,7.0,68,0.00,,,0.00,82.000000,,2013-10-06 13:21:00,
2013-10-06 09:32:00,82.0,70.0,-100.00,East,82,4.0,7.0,68,0.00,,,0.00,82.000000,,2013-10-06 13:32:00,
2013-10-06 10:11:00,83.0,71.0,-100.00,East,82,3.0,5.0,67,0.00,,,0.00,151.000000,,2013-10-06 14:11:00,
2013-10-06 10:22:00,83.0,71.0,-100.00,East,82,3.0,5.0,67,0.00,,,0.00,151.000000,,2013-10-06 14:22:00,
2013-10-06 10:32:00,83.0,71.0,-100.00,East,82,3.0,5.0,67,0.00,,,0.00,151.000000,,2013-10-06 14:32:00,
2013-10-06 11:11:00,84.0,71.0,-100.00,ENE,61,4.0,7.0,66,0.00,,,0.00,271.000000,,2013-10-06 15:11:00,
2013-10-06 11:22:00,84.0,71.0,-100.00,ENE,61,4.0,7.0,66,0.00,,,0.00,271.000000,,2013-10-06 15:22:00,
2013-10-06 11:34:00,84.0,71.0,-100.00,ENE,61,4.0,7.0,66,0.00,,,0.00,271.000000,,2013-10-06 15:34:00,
2013-10-06 12:12:00,86.0,69.0,-100.00,SE,127,4.0,8.0,58,0.00,,,0.00,355.000000,,2013-10-06 16:12:00,
2013-10-06 12:23:00,86.0,69.0,-100.00,SE,127,4.0,8.0,58,0.00,,,0.00,355.000000,,2013-10-06 16:23:00,
2013-10-06 12:33:00,86.0,69.0,-100.00,SE,127,4.0,8.0,58,0.00,,,0.00,355.000000,,2013-10-06 16:33:00,
2013-10-06 13:12:00,88.0,72.0,-100.00,SW,218,4.0,8.0,60,0.00,,,0.00,378.000000,,2013-10-06 17:12:00,
2013-10-06 13:22:00,88.0,72.0,-100.00,SW,218,4.0,8.0,60,0.00,,,0.00,378.000000,,2013-10-06 17:22:00,
2013-10-06 13:33:00,88.0,72.0,-100.00,SW,218,4.0,8.0,60,0.00,,,0.00,378.000000,,2013-10-06 17:33:00,
2013-10-06 14:12:00,90.0,71.0,-100.00,East,90,3.0,6.0,53,0.00,,,0.00,642.000000,,2013-10-06 18:12:00,
2013-10-06 14:22:00,90.0,71.0,-100.00,East,90,3.0,6.0,53,0.00,,,0.00,642.000000,,2013-10-06 18:22:00,
2013-10-06 14:32:00,90.0,71.0,-100.00,East,90,3.0,6.0,53,0.00,,,0.00,642.000000,,2013-10-06 18:32:00,
2013-10-06 15:11:00,88.0,70.0,-100.00,ESE,112,3.0,6.0,56,0.00,,,0.00,572.000000,,2013-10-06 19:11:00,
2013-10-06 15:22:00,88.0,70.0,-100.00,ESE,112,3.0,6.0,56,0.00,,,0.00,572.000000,,2013-10-06 19:22:00,
2013-10-06 15:32:00,88.0,70.0,-100.00,ESE,112,3.0,6.0,56,0.00,,,0.00,572.000000,,2013-10-06 19:32:00,
2013-10-06 16:11:00,90.0,72.0,-100.00,ENE,61,5.0,9.0,55,0.00,,,0.00,577.000000,,2013-10-06 20:11:00,
2013-10-06 16:22:00,90.0,72.0,-100.00,ENE,61,5.0,9.0,55,0.00,,,0.00,577.000000,,2013-10-06 20:22:00,
2013-10-06 16:32:00,90.0,72.0,-100.00,ENE,61,5.0,9.0,55,0.00,,,0.00,577.000000,,2013-10-06 20:32:00,
2013-10-06 17:12:00,88.0,73.0,-100.00,NE,35,5.0,9.0,62,0.00,,,0.00,432.000000,,2013-10-06 21:12:00,
2013-10-06 17:22:00,88.0,73.0,-100.00,NE,35,5.0,9.0,62,0.00,,,0.00,432.000000,,2013-10-06 21:22:00,
2013-10-06 17:34:00,88.0,73.0,-100.00,NE,35,5.0,9.0,62,0.00,,,0.00,432.000000,,2013-10-06 21:34:00,
2013-10-06 18:13:00,86.0,72.0,-100.00,NE,45,3.0,8.0,63,0.00,,,0.00,348.000000,,2013-10-06 22:13:00,
2013-10-06 18:24:00,86.0,72.0,-100.00,NE,45,3.0,8.0,63,0.00,,,0.00,348.000000,,2013-10-06 22:24:00,
2013-10-06 18:33:00,86.0,72.0,-100.00,NE,45,3.0,8.0,63,0.00,,,0.00,348.000000,,2013-10-06 22:33:00,
2013-10-06 19:12:00,84.0,72.0,-100.00,NE,48,2.0,6.0,67,0.00,,,0.00,145.000000,,2013-10-06 23:12:00,
2013-10-06 19:22:00,84.0,72.0,-100.00,NE,48,2.0,6.0,67,0.00,,,0.00,145.000000,,2013-10-06 23:22:00,
2013-10-06 19:34:00,84.0,72.0,-100.00,NE,48,2.0,6.0,67,0.00,,,0.00,145.000000,,2013-10-06 23:34:00,
2013-10-06 20:12:00,78.0,72.0,-100.00,SE,125,0.0,3.0,81,0.00,,,0.00,9.000000,,2013-10-07 00:12:00,
2013-10-06 20:22:00,78.0,72.0,-100.00,SE,125,0.0,3.0,81,0.00,,,0.00,9.000000,,2013-10-07 00:22:00,
2013-10-06 20:32:00,78.0,72.0,-100.00,SE,125,0.0,3.0,81,0.00,,,0.00,9.000000,,2013-10-07 00:32:00,
2013-10-06 21:11:00,76.0,72.0,-100.00,ESE,121,1.0,2.0,88,0.00,,,0.00,0.000000,,2013-10-07 01:11:00,
2013-10-06 21:22:00,76.0,72.0,-100.00,ESE,121,1.0,2.0,88,0.00,,,0.00,0.000000,,2013-10-07 01:22:00,
2013-10-06 21:32:00,76.0,72.0,-100.00,ESE,121,1.0,2.0,88,0.00,,,0.00,0.000000,,2013-10-07 01:32:00,
2013-10-06 22:12:00,75.0,72.0,-100.00,South,170,2.0,2.0,90,0.00,,,0.00,0.000000,,2013-10-07 02:12:00,
2013-10-06 22:22:00,75.0,72.0,-100.00,South,170,2.0,2.0,90,0.00,,,0.00,0.000000,,2013-10-07 02:22:00,
2013-10-06 22:32:00,75.0,72.0,-100.00,South,170,2.0,2.0,90,0.00,,,0.00,0.000000,,2013-10-07 02:32:00,
2013-10-06 23:12:00,75.0,72.0,-100.00,SSE,155,2.0,3.0,91,0.00,,,0.00,0.000000,,2013-10-07 03:12:00,
2013-10-06 23:22:00,75.0,72.0,-100.00,SSE,155,2.0,3.0,91,0.00,,,0.00,0.000000,,2013-10-07 03:22:00,
2013-10-06 23:34:00,75.0,72.0,-100.00,SSE,155,2.0,3.0,91,0.00,,,0.00,0.000000,,2013-10-07 03:34:00,